createdAt,value
2018-07-25T00:02:24.548Z,21.80
2018-07-25T00:07:19.117Z,21.90
2018-07-25T00:12:13.698Z,21.70
2018-07-25T00:17:08.253Z,21.60
2018-07-25T00:22:02.807Z,21.60
2018-07-25T00:26:57.382Z,21.70
2018-07-25T00:31:51.958Z,21.60
2018-07-25T00:36:46.476Z,21.50
2018-07-25T00:41:41.006Z,21.30
2018-07-25T00:46:35.518Z,21.40
2018-07-25T00:51:30.525Z,21.40
2018-07-25T00:56:25.125Z,21.20
2018-07-25T01:01:19.751Z,21.10
2018-07-25T01:06:14.273Z,21.10
2018-07-25T01:11:08.860Z,21.00
2018-07-25T01:16:04.416Z,21.00
2018-07-25T01:20:59.008Z,21.10
2018-07-25T01:30:47.818Z,20.90
2018-07-25T01:40:36.607Z,20.70
2018-07-25T01:45:31.117Z,20.60
2018-07-25T01:50:25.685Z,20.60
2018-07-25T01:55:20.211Z,20.70
2018-07-25T02:00:14.781Z,20.60
2018-07-25T02:05:09.324Z,20.80
2018-07-25T02:10:03.929Z,20.60
2018-07-25T02:14:58.538Z,20.40
2018-07-25T02:19:53.142Z,20.30
2018-07-25T02:24:47.689Z,20.20
2018-07-25T02:29:42.236Z,20.10
2018-07-25T02:34:36.787Z,20.10
2018-07-25T02:44:25.585Z,20.10
2018-07-25T02:49:20.202Z,20.00
2018-07-25T02:54:14.774Z,20.10
2018-07-25T02:59:09.339Z,20.00
2018-07-25T03:04:03.917Z,19.90
2018-07-25T03:08:58.536Z,19.90
2018-07-25T03:13:53.042Z,19.70
2018-07-25T03:18:47.591Z,19.60
2018-07-25T03:23:42.137Z,19.60
2018-07-25T03:28:36.743Z,19.50
2018-07-25T03:33:31.321Z,19.70
2018-07-25T03:38:26.489Z,19.70
2018-07-25T03:43:21.130Z,20.00
2018-07-25T03:48:15.714Z,20.20
2018-07-25T03:53:10.311Z,19.90
2018-07-25T03:58:04.965Z,19.70
2018-07-25T04:02:59.546Z,19.40
2018-07-25T04:07:54.293Z,19.40
2018-07-25T04:12:49.255Z,19.30
2018-07-25T04:17:45.915Z,19.40
2018-07-25T04:22:40.544Z,19.90
2018-07-25T04:27:35.666Z,20.60
2018-07-25T04:32:30.244Z,21.70
2018-07-25T04:37:24.981Z,22.40
2018-07-25T04:42:20.213Z,23.00
2018-07-25T04:47:14.740Z,23.60
2018-07-25T04:52:09.334Z,24.50
2018-07-25T04:57:03.921Z,25.00
2018-07-25T05:01:58.513Z,25.90
2018-07-25T05:06:53.072Z,27.40
2018-07-25T05:11:47.590Z,27.70
2018-07-25T05:16:42.162Z,27.30
2018-07-25T05:21:36.743Z,27.70
2018-07-25T05:26:31.261Z,27.80
2018-07-25T05:31:25.686Z,28.40
2018-07-25T05:36:20.369Z,28.90
2018-07-25T05:41:14.785Z,28.50
2018-07-25T05:46:09.297Z,29.10
2018-07-25T05:51:03.785Z,29.70
2018-07-25T05:55:58.310Z,30.20
2018-07-25T06:00:52.763Z,30.40
2018-07-25T06:05:47.278Z,30.40
2018-07-25T06:15:35.829Z,31.80
2018-07-25T06:20:30.429Z,31.80
2018-07-25T06:25:36.494Z,32.60
2018-07-25T06:30:30.976Z,32.50
2018-07-25T06:35:25.925Z,32.40
2018-07-25T06:45:14.577Z,29.30
2018-07-25T06:50:12.145Z,29.20
2018-07-25T06:55:06.753Z,28.60
2018-07-25T07:00:01.312Z,28.10
2018-07-25T07:09:54.565Z,28.00
2018-07-25T07:14:49.085Z,28.60
2018-07-25T07:19:43.677Z,28.20
2018-07-25T07:24:38.504Z,28.50
2018-07-25T07:29:33.305Z,28.30
2018-07-25T07:34:33.843Z,28.10
2018-07-25T07:39:28.415Z,27.80
2018-07-25T07:44:39.925Z,27.40
2018-07-25T07:49:36.178Z,27.10
2018-07-25T07:54:31.641Z,27.80
2018-07-25T07:59:26.215Z,28.40
2018-07-25T08:04:20.800Z,28.60
2018-07-25T08:09:15.979Z,28.20
2018-07-25T08:14:17.427Z,28.20
2018-07-25T08:19:13.033Z,28.40
2018-07-25T08:24:07.541Z,28.80
2018-07-25T08:29:02.102Z,28.70
2018-07-25T08:33:56.685Z,28.70
2018-07-25T08:38:51.324Z,28.50
2018-07-25T08:43:45.818Z,28.80
2018-07-25T08:48:40.504Z,29.30
2018-07-25T08:53:35.417Z,29.50
2018-07-25T08:58:30.181Z,29.60
2018-07-25T09:03:33.702Z,29.40
2018-07-25T09:08:29.107Z,29.20
2018-07-25T09:13:23.808Z,29.40
2018-07-25T09:18:18.325Z,29.60
2018-07-25T09:23:12.775Z,28.80
2018-07-25T09:28:07.849Z,28.50
2018-07-25T09:33:03.417Z,28.90
2018-07-25T09:37:58.074Z,29.50
2018-07-25T09:42:53.961Z,30.00
2018-07-25T09:47:49.399Z,30.40
2018-07-25T09:52:47.223Z,30.80
2018-07-25T09:57:42.018Z,30.70
2018-07-25T10:02:36.697Z,30.80
2018-07-25T10:07:31.231Z,30.70
2018-07-25T10:17:21.734Z,30.10
2018-07-25T10:27:10.965Z,31.00
2018-07-25T10:32:05.425Z,30.50
2018-07-25T10:41:54.150Z,31.10
2018-07-25T10:46:48.751Z,30.70
2018-07-25T10:51:43.290Z,31.10
2018-07-25T10:56:38.030Z,30.80
2018-07-25T11:01:33.569Z,31.00
2018-07-25T11:06:28.289Z,31.20
2018-07-25T11:11:23.125Z,31.20
2018-07-25T11:16:18.090Z,31.20
2018-07-25T11:21:12.591Z,31.50
2018-07-25T11:26:07.438Z,31.80
2018-07-25T11:31:02.156Z,31.70
2018-07-25T11:35:57.184Z,31.70
2018-07-25T11:40:52.233Z,31.80
2018-07-25T11:45:50.440Z,31.90
2018-07-25T11:50:48.615Z,32.10
2018-07-25T11:55:46.818Z,32.20
2018-07-25T12:00:46.087Z,31.90
2018-07-25T12:05:49.499Z,32.10
2018-07-25T12:10:47.542Z,31.90
2018-07-25T12:15:42.191Z,31.40
2018-07-25T12:20:39.798Z,32.00
2018-07-25T12:25:34.507Z,32.00
2018-07-25T12:30:31.723Z,32.00
2018-07-25T12:35:26.625Z,31.90
2018-07-25T12:40:21.452Z,32.50
2018-07-25T12:45:19.815Z,32.50
2018-07-25T12:50:15.631Z,32.70
2018-07-25T12:55:11.250Z,32.60
2018-07-25T13:00:08.438Z,32.60
2018-07-25T13:05:03.266Z,32.40
2018-07-25T13:09:58.443Z,32.60
2018-07-25T13:14:53.574Z,32.80
2018-07-25T13:19:48.507Z,32.60
2018-07-25T13:24:44.793Z,32.50
2018-07-25T13:29:39.498Z,32.50
2018-07-25T13:34:34.189Z,33.20
2018-07-25T13:39:28.981Z,33.50
2018-07-25T13:44:24.063Z,33.70
2018-07-25T13:49:19.175Z,33.40
2018-07-25T13:54:27.271Z,33.60
2018-07-25T13:59:23.432Z,33.50
2018-07-25T14:04:19.631Z,33.50
2018-07-25T14:09:16.007Z,33.70
2018-07-25T14:14:11.352Z,33.50
2018-07-25T14:19:06.459Z,33.40
2018-07-25T14:24:01.581Z,33.20
2018-07-25T14:28:56.634Z,33.20
2018-07-25T14:33:51.241Z,33.50
2018-07-25T14:38:45.952Z,33.20
2018-07-25T14:43:40.692Z,32.60
2018-07-25T14:48:35.805Z,31.40
2018-07-25T14:53:30.927Z,30.80
2018-07-25T14:58:25.686Z,30.40
2018-07-25T15:03:20.313Z,30.20
2018-07-25T15:08:15.861Z,30.20
2018-07-25T15:13:11.095Z,30.40
2018-07-25T15:18:08.890Z,30.50
2018-07-25T15:23:03.552Z,30.90
2018-07-25T15:27:58.347Z,31.30
2018-07-25T15:32:53.077Z,31.50
2018-07-25T15:37:47.801Z,31.50
2018-07-25T15:42:42.630Z,31.60
2018-07-25T15:47:37.286Z,31.50
2018-07-25T15:52:31.911Z,31.40
2018-07-25T15:57:26.688Z,31.40
2018-07-25T16:02:21.282Z,31.50
2018-07-25T16:07:15.922Z,31.40
2018-07-25T16:12:11.041Z,31.40
2018-07-25T16:17:05.803Z,31.10
2018-07-25T16:22:01.058Z,31.00
2018-07-25T16:26:55.654Z,31.10
2018-07-25T16:31:50.269Z,30.90
2018-07-25T16:36:45.246Z,30.80
2018-07-25T16:41:40.277Z,30.80
2018-07-25T16:46:35.124Z,30.80
2018-07-25T16:51:29.710Z,30.60
2018-07-25T16:56:24.309Z,30.40
2018-07-25T17:01:18.960Z,30.60
2018-07-25T17:06:13.803Z,30.50
2018-07-25T17:11:08.671Z,30.30
2018-07-25T17:16:03.313Z,30.20
2018-07-25T17:20:57.878Z,30.10
2018-07-25T17:25:52.514Z,30.00
2018-07-25T17:30:47.526Z,30.00
2018-07-25T17:35:42.459Z,30.00
2018-07-25T17:50:25.885Z,30.00
2018-07-25T17:55:20.565Z,30.00
2018-07-25T18:00:15.156Z,30.00
2018-07-25T18:05:10.518Z,29.80
2018-07-25T18:10:05.626Z,29.70
2018-07-25T18:19:54.554Z,29.40
2018-07-25T18:24:49.294Z,29.40
2018-07-25T18:29:43.900Z,29.40
2018-07-25T18:34:38.509Z,29.30
2018-07-25T18:39:33.114Z,29.10
2018-07-25T18:44:27.715Z,29.10
2018-07-25T18:49:22.360Z,28.90
2018-07-25T18:54:16.948Z,28.80
2018-07-25T18:59:11.684Z,28.60
2018-07-25T19:04:06.494Z,28.40
2018-07-25T19:09:01.114Z,28.30
2018-07-25T19:14:00.975Z,28.10
2018-07-25T19:18:55.533Z,28.10
2018-07-25T19:23:50.224Z,28.00
2018-07-25T19:28:44.721Z,27.80
2018-07-25T19:33:39.260Z,27.80
2018-07-25T19:38:33.849Z,27.70
2018-07-25T19:43:28.488Z,27.60
2018-07-25T19:48:23.051Z,27.40
2018-07-25T19:53:17.651Z,27.20
2018-07-25T19:58:12.292Z,27.10
2018-07-25T20:03:07.150Z,26.90
2018-07-25T20:08:02.246Z,26.90
2018-07-25T20:12:57.038Z,26.90
2018-07-25T20:17:51.662Z,26.70
2018-07-25T20:22:46.302Z,26.50
2018-07-25T20:27:40.851Z,26.20
2018-07-25T20:32:35.485Z,26.10
2018-07-25T20:37:30.104Z,26.00
2018-07-25T20:42:25.122Z,25.80
2018-07-25T20:47:19.727Z,25.50
2018-07-25T20:52:14.438Z,25.30
2018-07-25T20:57:09.231Z,25.10
2018-07-25T21:02:03.837Z,25.00
2018-07-25T21:06:58.409Z,24.80
2018-07-25T21:11:53.155Z,24.80
2018-07-25T21:21:42.287Z,24.60
2018-07-25T21:26:36.872Z,24.60
2018-07-25T21:31:31.445Z,24.40
2018-07-25T21:36:26.187Z,24.20
2018-07-25T21:41:20.890Z,24.00
2018-07-25T21:46:15.450Z,23.90
2018-07-25T21:51:10.002Z,23.90
2018-07-25T22:01:00.715Z,23.80
2018-07-25T22:05:55.297Z,23.80
2018-07-25T22:10:49.868Z,23.70
2018-07-25T22:20:38.665Z,23.50
2018-07-25T22:30:27.541Z,23.50
2018-07-25T22:35:22.138Z,23.50
2018-07-25T22:40:16.747Z,23.30
2018-07-25T22:45:11.370Z,23.20
2018-07-25T22:50:05.987Z,23.10
2018-07-25T22:55:00.623Z,23.10
2018-07-25T22:59:55.222Z,22.90
2018-07-25T23:04:49.830Z,22.80
2018-07-25T23:09:44.470Z,22.70
2018-07-25T23:14:39.056Z,22.80
2018-07-25T23:19:33.575Z,22.80
2018-07-25T23:24:28.122Z,22.70
2018-07-25T23:29:22.715Z,22.60
2018-07-25T23:34:17.522Z,22.50
2018-07-25T23:39:12.701Z,22.30
2018-07-25T23:44:07.380Z,22.20
2018-07-25T23:49:01.946Z,22.10
2018-07-25T23:53:56.534Z,22.10
2018-07-25T23:58:51.096Z,22.20
